Phelps, WI (54554)

9:27 AM CST on February 13, 2016 (GMT -0600)
Misery Bay Boat Launch | | Change Station
CLOSE
Current Station
Personal Weather Station
Location: Watersmeet, MI
Elevation: 1685 ft
Nearby Weather Stations

Elev 1685 ft 46.16 °N, 89.12 °W | Updated 8 minutes ago

Overcast
Overcast
5.0 °F
Feels Like 5 °F
N
0.0
Wind Variable Wind from South

Today
High -- | Low -- °F
--% Chance of Precip.
Yesterday
High -- | Low -- °F
Precip. -- in
Pressure 30.42 in
Visibility 1.8 miles
Clouds Mostly Cloudy 1000 ft
Overcast 1900 ft
Windchill 5 °F
Dew Point -2 °F
Humidity 72%
Rainfall 0.00 in
Snow Depth Not available.
7:02 AM 5:18 PM
Waxing Crescent, 31% visible
METAR KLNL 131515Z AUTO 29004KT 1 3/4SM -SN BKN010 OVC019 M17/M21 A3042 RMK AO2 T11721206
Pressure 30.42 in
Visibility 1.8 miles
Clouds Mostly Cloudy 1000 ft
Overcast 1900 ft
Windchill 5 °F
Dew Point -2 °F
Humidity 72%
Rainfall 0.00 in
Snow Depth Not available.
7:02 AM 5:18 PM
Waxing Crescent, 31% visible
METAR KLNL 131515Z AUTO 29004KT 1 3/4SM -SN BKN010 OVC019 M17/M21 A3042 RMK AO2 T11721206

10-Day Weather Forecast

Almanac

Astronomy

Feb. 13, 2016 Rise Set
Actual Time
Civil Twilight
Nautical Twilight
Astronomical Twilight
Moon
Length of Visible Light
Length of Day
Tomorrow will be .
, % of the Moon is Illuminated

Today's Extremes

State Highs State Lows

Community

WunderPhotos

Upload Photos

1,892,580 photos uploaded!

WunderBlog® & News

Nearby

Air Quality

  Air Quality AQ Index Pollutant
Not available.

Snow Depth

Station Depth Elevation

Earthquake Activity

City Distance Mag. Time & Date
Minimum magnitude displayed is 2.5.

Coastal Water Temperatures

Place Temperature

Stations

Nearby Weather Stations

Station Location Temp. Windchill Dew Point Humidity Wind Precip. Elev Updated Type
                   

Watches & Warnings

There are currently no watches in effect.